• Join FlightAware (Why Join?)
  • Login
  • US Flag 
07:51AM EDT


 

Airport Tracker/Info


-or-


 

Live Flight TrackerFlight Track Log ✈ JBU1781 ✈ 12-May-2013 ✈ KMCO - MYNN / NAS

Flight Track Log - Related Links

Times and Time Zones

All times are in EDT time to prevent confusion due to time zone crossing. See the JBU1781 flight status page for this flight to view local times or setup timezone preferences in your user account.

Time Position Orientation Groundspeed Altitude Reporting Facility
EDT Latitude Longitude Course Direction KTS MPH feet Rate Location/Type
02:07PM 28.4167 -81.3167 139° Southeast 153 176 700  Level Orlando TRACON
02:08PM 28.3667 -81.2667 139° Southeast 212 244 2,600 1,860 Climbing Orlando TRACON
02:09PM 28.3667 -81.1833 90° East 281 323 4,900 2,700 Climbing Orlando TRACON
02:10PM 28.1356 -80.9617 139° Southeast  Level Estimated
02:10PM 28.3689 -81.0467 89° East 308 354 9,700  Level Miami Center
02:11PM 28.0620 -80.8752 139° Southeast  Level Estimated
02:11PM 28.3614 -80.9428 95° East 313 360 12,400  Level Miami Center
02:12PM 27.9883 -80.7888 139° Southeast  Level Estimated
02:12PM 28.3725 -80.8464 83° East 328 377 14,100  Level Miami Center
02:13PM 28.3928 -80.7125 80° East 360 414 14,000 360 Descending Miami Center
02:14PM 28.3458 -80.6050 116° Southeast 358 412 14,900 1,500 Climbing Miami Center
02:15PM 28.2767 -80.5247 134° Southeast 367 422 17,100 1,980 Climbing Miami Center
02:16PM 28.2000 -80.4306 133° Southeast 387 445 18,900 2,100 Climbing Miami Center
02:17PM 28.1106 -80.3242 134° Southeast 405 466 21,400 2,040 Climbing Miami Center
02:18PM 28.0317 -80.2253 132° Southeast 418 481 23,000 780 Climbing Miami Center
02:19PM 27.9483 -80.1286 134° Southeast 423 487 23,000  Level Miami Center
02:20PM 27.8772 -80.0397 132° Southeast 423 487 23,000  Level Miami Center
02:21PM 27.7814 -79.9292 134° Southeast 429 494 23,000  Level Miami Center
02:22PM 27.7042 -79.8333 132° Southeast 429 494 23,000  Level Miami Center
02:23PM 27.6206 -79.7350 134° Southeast 429 494 23,000  Level Miami Center
02:24PM 27.5219 -79.6553 144° Southeast 437 503 23,000  Level Miami Center
02:25PM 27.4356 -79.5806 142° Southeast 437 503 23,000  Level Miami Center
02:26PM 27.3286 -79.4917 144° Southeast 437 503 23,000  Level Miami Center
02:27PM 27.2428 -79.3939 135° Southeast 442 509 23,000  Level Miami Center
02:28PM 27.1631 -79.2939 132° Southeast 437 503 23,000  Level Miami Center
02:29PM 27.0914 -79.2014 131° Southeast 437 503 23,000  Level Miami Center
02:30PM 27.0094 -79.0997 132° Southeast 437 503 23,000  Level Miami Center
02:31PM 26.9275 -78.9978 132° Southeast 437 503 23,000  Level Miami Center
02:32PM 26.8475 -78.8986 132° Southeast 437 503 23,000  Level Miami Center
02:33PM 26.7653 -78.7972 132° Southeast 437 503 23,000  Level Miami Center
02:34PM 26.6831 -78.6958 132° Southeast 437 503 23,000  Level Miami Center
02:35PM 26.5925 -78.5806 131° Southeast 432 497 23,000  Level Miami Center
02:36PM 26.5100 -78.4886 135° Southeast 432 497 23,000  Level Miami Center
02:37PM 26.4253 -78.3856 133° Southeast 432 497 23,000  Level Miami Center
02:38PM 26.3450 -78.2872 132° Southeast 432 497 23,000 -300 Level Miami Center
02:39PM 26.2622 -78.1817 131° Southeast 432 497 22,400 -1,020 Descending Miami Center
02:40PM 26.1797 -78.0836 133° Southeast 432 497 21,000 -1,380 Descending Miami Center
02:41PM 26.1031 -77.9903 132° Southeast 426 490 19,700 -1,260 Descending Miami Center
02:42PM 26.0264 -77.8969 132° Southeast 414 476 18,500 -1,440 Descending Miami Center
02:43PM 25.9519 -77.8039 132° Southeast 409 471 16,900 -1,800 Descending Miami Center
02:44PM 25.8792 -77.7203 134° Southeast 391 450 15,000 -1,800 Descending Miami Center
02:45PM 25.8086 -77.6319 132° Southeast 385 443 13,300 -1,020 Descending Miami Center
02:46PM 25.7464 -77.5600 134° Southeast 375 432 13,000 -180 Descending Miami Center
02:47PM 25.6797 -77.4928 138° Southeast 348 400 13,000 -900 Level Miami Center
02:48PM 25.5919 -77.4969 182° South 297 342 11,300 -1,740 Descending Miami Center